Flight Track Log - Related Links

Times and Time Zones

All times are in EDT time to prevent confusion due to time zone crossing. See the AAL297 flight status page for this flight to view local times or setup timezone preferences in your user account.

Time Position Orientation Groundspeed Altitude Reporting Facility
EDT Latitude Longitude Course Direction KTS MPH feet Rate Location/Type
Wed 03:02:02 PM 32.8650 -97.0510 179° South 191 220 2,300  Level FlightAware ADS-B
Wed 03:02:17 PM 32.8490 -97.0510 180° South 218 251 2,600 2,000 Climbing FlightAware ADS-B
Wed 03:02:47 PM 32.8160 -97.0520 181° South 244 281 3,800 2,533 Climbing FlightAware ADS-B
Wed 03:03:02 PM 32.8000 -97.0580 197° South 255 293 4,500 2,400 Climbing FlightAware ADS-B
Wed 03:03:12 PM 32.7910 -97.0640 209° Southwest 263 303 4,800 2,400 Climbing FlightAware ADS-B
Wed 03:03:27 PM 32.7780 -97.0820 229° Southwest 275 316 5,500 2,600 Climbing FlightAware ADS-B
Wed 03:03:42 PM 32.7740 -97.1040 258° West 282 325 6,100 2,533 Climbing FlightAware ADS-B
Wed 03:04:12 PM 32.7690 -97.1500 263° West 285 328 7,400 2,727 Climbing FlightAware ADS-B
Wed 03:04:37 PM 32.7670 -97.1920 267° West 286 329 8,600 2,618 Climbing FlightAware ADS-B
Wed 03:05:07 PM 32.7640 -97.2380 266° West 290 334 9,800 1,286 Climbing FlightAware ADS-B
Wed 03:05:47 PM 32.7600 -97.3050 266° West 328 377 10,100 1,275 Climbing FlightAware ADS-B
Wed 03:06:27 PM 32.7560 -97.3740 266° West 331 381 11,500 2,259 Climbing FlightAware ADS-B
Wed 03:07:12 PM 32.7510 -97.4580 266° West 333 383 13,300 2,400 Climbing FlightAware ADS-B
Wed 03:07:52 PM 32.7460 -97.5330 265° West 338 389 14,900 2,259 Climbing FlightAware ADS-B
Wed 03:08:37 PM 32.7410 -97.6180 266° West 345 397 16,500 1,906 Climbing FlightAware ADS-B
Wed 03:09:17 PM 32.7360 -97.6900 265° West 357 411 17,600 1,624 Climbing FlightAware ADS-B
Wed 03:10:02 PM 32.7330 -97.7780 268° West 372 428 18,800 1,725 Climbing FlightAware ADS-B
Wed 03:10:37 PM 32.7330 -97.8470 270° West 376 433 19,900 1,920 Climbing FlightAware ADS-B
Wed 03:11:17 PM 32.7330 -97.9340 270° West 378 435 21,200 1,333 Climbing FlightAware ADS-B
Wed 03:12:07 PM 32.7270 -98.0460 266° West 406 467 21,900 867 Climbing FlightAware ADS-B
Wed 03:12:47 PM 32.7160 -98.1340 262° West 423 487 22,500 776 Climbing FlightAware ADS-B
Wed 03:13:32 PM 32.7040 -98.2320 262° West 426 490 23,000 1,200 Climbing FlightAware ADS-B
Wed 03:14:22 PM 32.6890 -98.3490 261° West 434 499 24,400 1,768 Climbing FlightAware ADS-B
Wed 03:15:07 PM 32.6960 -98.2930 82° East 450 518 25,800 1,765 Climbing FlightAware ADS-B
Wed 03:15:47 PM 32.6620 -98.5620 262° West 458 527 26,900 1,553 Climbing FlightAware ADS-B
Wed 03:16:32 PM 32.6470 -98.6780 261° West 467 537 28,000 1,371 Climbing FlightAware ADS-B
Wed 03:16:57 PM 32.6390 -98.7390 261° West 471 542 28,500 1,371 Climbing FlightAware ADS-B
Wed 03:17:42 PM 32.6240 -98.8550 261° West 475 547 29,600 1,694 Climbing FlightAware ADS-B
Wed 03:18:22 PM 32.6100 -98.9600 261° West 468 539 30,900 1,906 Climbing FlightAware ADS-B
Wed 03:19:07 PM 32.5960 -99.0710 262° West 461 531 32,300 1,835 Climbing FlightAware ADS-B
Wed 03:19:47 PM 32.5830 -99.1700 261° West 455 524 33,500 1,553 Climbing FlightAware ADS-B
Wed 03:20:32 PM 32.5670 -99.2830 260° West 456 525 34,500 1,341 Climbing FlightAware ADS-B
Wed 03:21:12 PM 32.5540 -99.3820 261° West 456 525 35,400 1,125 Climbing FlightAware ADS-B
Wed 03:21:52 PM 32.5410 -99.4790 261° West 457 526 36,000 424 Climbing FlightAware ADS-B
Wed 03:22:37 PM 32.5260 -99.5900 261° West 460 529 36,000  Level FlightAware ADS-B
Wed 03:23:17 PM 32.5120 -99.6870 260° West 459 528 36,000  Level FlightAware ADS-B
Wed 03:23:57 PM 32.4990 -99.7880 261° West 460 529 36,000  Level FlightAware ADS-B
Wed 03:24:42 PM 32.4860 -99.9030 262° West 459 528 36,000  Level FlightAware ADS-B
Wed 03:25:22 PM 32.4810 -100.0040 267° West 458 527 36,000  Level FlightAware ADS-B
Wed 03:26:07 PM 32.4750 -100.1140 266° West 458 527 36,000  Level FlightAware ADS-B
Wed 03:26:47 PM 32.4700 -100.2150 267° West 458 527 36,000  Level FlightAware ADS-B
Wed 03:27:27 PM 32.4640 -100.3150 266° West 459 528 36,000  Level FlightAware ADS-B
Wed 03:28:12 PM 32.4580 -100.4200 266° West 459 528 36,000  Level FlightAware ADS-B
Wed 03:28:52 PM 32.4520 -100.5260 266° West 458 527 36,000  Level FlightAware ADS-B
Wed 03:29:37 PM 32.4460 -100.6270 266° West 458 527 36,000  Level FlightAware ADS-B
Wed 03:30:17 PM 32.4410 -100.7120 266° West 458 527 36,000  Level FlightAware ADS-B
Wed 03:30:57 PM 32.4360 -100.7970 266° West 458 527 36,000  Level FlightAware ADS-B
Wed 03:31:37 PM 32.4310 -100.8820 266° West 458 527 36,000  Level FlightAware ADS-B
Wed 03:32:37 PM 32.4180 -101.0900 266° West 456 525 36,000  Level FlightAware ADS-B
Wed 03:33:22 PM 32.4110 -101.2010 266° West 455 524 36,000  Level FlightAware ADS-B
Wed 03:33:52 PM 32.4070 -101.2730 266° West 454 522 36,000  Level FlightAware ADS-B
Wed 03:34:37 PM 32.4000 -101.3880 266° West 454 522 36,000  Level FlightAware ADS-B
Wed 03:35:17 PM 32.3930 -101.4850 265° West 453 521 36,000  Level FlightAware ADS-B
Wed 03:36:02 PM 32.3850 -101.5940 265° West 453 521 36,000  Level FlightAware ADS-B
Wed 03:36:37 PM 32.3800 -101.6710 266° West 453 521 36,000  Level FlightAware ADS-B
Wed 03:37:17 PM 32.3740 -101.7550 265° West 453 521 36,000  Level FlightAware ADS-B
Wed 03:38:07 PM 32.3660 -101.8600 265° West 453 521 36,000  Level FlightAware ADS-B
Wed 03:38:47 PM 32.3600 -101.9440 265° West 453 521 36,000  Level FlightAware ADS-B
Wed 03:39:27 PM 32.3530 -102.0280 264° West 453 521 36,000  Level FlightAware ADS-B
Wed 03:40:07 PM 32.3470 -102.1120 265° West 453 521 36,000  Level FlightAware ADS-B
Wed 03:40:47 PM 32.3410 -102.1960 265° West 453 521 36,000  Level FlightAware ADS-B
Wed 03:41:37 PM 32.3330 -102.3010 265° West 453 521 36,000  Level FlightAware ADS-B
Wed 03:42:17 PM 32.3270 -102.3850 265° West 453 521 36,000  Level FlightAware ADS-B
Wed 03:42:57 PM 32.3210 -102.4690 265° West 453 521 36,000  Level FlightAware ADS-B
Wed 03:43:37 PM 32.3150 -102.5530 265° West 453 521 36,000  Level FlightAware ADS-B
Wed 03:44:27 PM 32.3070 -102.6580 265° West 453 521 36,000  Level FlightAware ADS-B
Wed 03:44:57 PM 32.3020 -102.7210 265° West 453 521 36,000  Level FlightAware ADS-B
Wed 03:45:47 PM 32.2940 -102.8260 265° West 453 521 36,000  Level FlightAware ADS-B
Wed 03:46:06 PM 32.2625 -103.0528 265° West 448 516 36,000  Level Albuquerque Center
Wed 03:47:07 PM 32.2500 -103.1994 264° West 448 516 36,000  Level Albuquerque Center
Wed 03:48:09 PM 32.2344 -103.3744 264° West 447 514 36,000  Level Albuquerque Center
Wed 03:49:11 PM 32.2222 -103.5194 264° West 445 512 36,000  Level Albuquerque Center
Wed 03:50:13 PM 32.2089 -103.6636 264° West 444 511 36,000  Level Albuquerque Center
Wed 03:51:15 PM 32.1986 -103.8094 265° West 446 513 36,000  Level Albuquerque Center
Wed 03:52:17 PM 32.1853 -103.9544 264° West 447 514 36,000  Level Albuquerque Center
Wed 03:53:19 PM 32.1703 -104.1228 264° West 445 512 36,000  Level Albuquerque Center
Wed 03:54:20 PM 32.1561 -104.2683 263° West 447 514 36,000  Level Albuquerque Center
Wed 03:55:22 PM 32.1425 -104.4122 264° West 446 513 36,000  Level Albuquerque Center
Wed 03:56:24 PM 32.1289 -104.5564 264° West 445 512 36,000  Level Albuquerque Center
Wed 03:57:26 PM 32.1236 -104.6994 268° West 439 505 36,000  Level Albuquerque Center
Wed 03:58:28 PM 32.1308 -104.8411 273° West 434 499 36,000  Level Albuquerque Center
Wed 03:59:30 PM 32.1403 -105.0133 274° West 440 506 36,000  Level Albuquerque Center
Wed 04:00:32 PM 32.1467 -105.1567 273° West 440 506 36,000  Level Albuquerque Center
Wed 04:06:37 PM 32.1930 -106.0290 273° West 436 502 36,000  Level FlightAware ADS-B
Wed 04:07:17 PM 32.1970 -106.1220 273° West 436 502 36,000  Level FlightAware ADS-B
Wed 04:07:57 PM 32.2000 -106.2140 272° West 435 501 36,000  Level FlightAware ADS-B
Wed 04:08:42 PM 32.2040 -106.3150 273° West 434 499 36,000  Level FlightAware ADS-B
Wed 04:09:37 PM 32.2090 -106.4480 273° West 433 498 36,000  Level FlightAware ADS-B
Wed 04:10:17 PM 32.2120 -106.5410 272° West 432 497 36,000  Level FlightAware ADS-B
Wed 04:11:02 PM 32.2160 -106.6500 273° West 431 496 36,000  Level FlightAware ADS-B
Wed 04:11:42 PM 32.2190 -106.7450 272° West 432 497 36,000  Level FlightAware ADS-B
Wed 04:12:22 PM 32.2220 -106.8380 272° West 432 497 36,000  Level FlightAware ADS-B
Wed 04:13:02 PM 32.2250 -106.9260 272° West 431 496 36,000 360 Level FlightAware ADS-B
Wed 04:14:02 PM 32.2410 -107.0660 278° West 427 491 36,600 545 Climbing FlightAware ADS-B
Wed 04:14:52 PM 32.2650 -107.1710 285° West 426 490 37,000 240 Climbing FlightAware ADS-B
Wed 04:15:42 PM 32.2870 -107.2670 285° West 426 490 37,000  Level FlightAware ADS-B
Wed 04:16:22 PM 32.3040 -107.3430 285° West 426 490 37,000  Level FlightAware ADS-B
Wed 04:17:02 PM 32.3220 -107.4200 285° West 426 490 37,000  Level FlightAware ADS-B
Wed 04:17:42 PM 32.3390 -107.4970 285° West 426 490 37,000 984 Level FlightAware ADS-B
Wed 04:18:03 PM 32.3531 -107.5867 285° West 415 478 38,000 156 Climbing Albuquerque Center
Wed 04:23:17 PM 32.5260 -108.2910 285° West 38,000  Level FlightAware ADS-B
Wed 04:24:07 PM 32.5540 -108.4160 285° West 420 483 38,000  Level FlightAware ADS-B
Wed 04:24:47 PM 32.5780 -108.5040 288° West 421 484 38,000  Level FlightAware ADS-B
Wed 04:25:27 PM 32.6030 -108.5920 289° West 422 486 38,000  Level FlightAware ADS-B
Wed 04:26:12 PM 32.6300 -108.6900 288° West 424 488 38,000  Level FlightAware ADS-B
Wed 04:26:52 PM 32.6540 -108.7800 288° West 424 488 38,000  Level FlightAware ADS-B
Wed 04:27:37 PM 32.6800 -108.8770 288° West 424 488 38,000  Level FlightAware ADS-B
Wed 04:28:17 PM 32.7050 -108.9670 288° West 424 488 38,000  Level FlightAware ADS-B
Wed 04:28:57 PM 32.7280 -109.0560 287° West 421 484 38,000  Level FlightAware ADS-B
Wed 04:29:42 PM 32.7550 -109.1540 288° West 421 484 38,000  Level FlightAware ADS-B
Wed 04:30:22 PM 32.7780 -109.2360 288° West 421 484 38,000  Level FlightAware ADS-B
Wed 04:31:07 PM 32.8050 -109.3380 288° West 420 483 38,000  Level FlightAware ADS-B
Wed 04:31:47 PM 32.8290 -109.4260 288° West 419 482 38,000  Level FlightAware ADS-B
Wed 04:32:27 PM 32.8530 -109.5170 287° West 419 482 38,000  Level FlightAware ADS-B
Wed 04:33:12 PM 32.8790 -109.6120 288° West 419 482 38,000  Level FlightAware ADS-B
Wed 04:33:52 PM 32.9030 -109.7000 288° West 418 481 38,000  Level FlightAware ADS-B
Wed 04:34:37 PM 32.9300 -109.8020 288° West 416 479 38,000  Level FlightAware ADS-B
Wed 04:35:17 PM 32.9530 -109.8890 288° West 416 479 38,000  Level FlightAware ADS-B
Wed 04:35:57 PM 32.9760 -109.9770 287° West 415 478 38,000  Level FlightAware ADS-B
Wed 04:36:42 PM 33.0020 -110.0720 288° West 414 476 38,000  Level FlightAware ADS-B
Wed 04:37:22 PM 33.0250 -110.1590 288° West 413 475 38,000  Level FlightAware ADS-B
Wed 04:38:07 PM 33.0510 -110.2600 287° West 412 474 38,000  Level FlightAware ADS-B
Wed 04:38:47 PM 33.0740 -110.3470 288° West 412 474 38,000  Level FlightAware ADS-B
Wed 04:39:27 PM 33.0960 -110.4310 287° West 412 474 38,000  Level FlightAware ADS-B
Wed 04:40:12 PM 33.1210 -110.5280 287° West 413 475 38,000  Level FlightAware ADS-B
Wed 04:40:52 PM 33.1440 -110.6150 288° West 413 475 38,000  Level FlightAware ADS-B
Wed 04:41:37 PM 33.1700 -110.7150 287° West 413 475 38,000  Level FlightAware ADS-B
Wed 04:42:17 PM 33.1920 -110.8010 287° West 413 475 38,000  Level FlightAware ADS-B
Wed 04:42:57 PM 33.2140 -110.8890 287° West 413 475 38,000  Level FlightAware ADS-B
Wed 04:43:42 PM 33.2390 -110.9850 287° West 412 474 38,000  Level FlightAware ADS-B
Wed 04:44:22 PM 33.2610 -111.0720 287° West 414 476 38,000  Level FlightAware ADS-B
Wed 04:45:07 PM 33.2870 -111.1720 287° West 416 479 38,000  Level FlightAware ADS-B
Wed 04:45:47 PM 33.3080 -111.2570 286° West 417 480 38,000  Level FlightAware ADS-B
Wed 04:46:27 PM 33.3310 -111.3470 287° West 418 481 38,000  Level FlightAware ADS-B
Wed 04:47:12 PM 33.3560 -111.4460 287° West 420 483 38,000  Level FlightAware ADS-B
Wed 04:47:52 PM 33.3780 -111.5340 287° West 421 484 38,000  Level FlightAware ADS-B
Wed 04:48:32 PM 33.4010 -111.6260 287° West 422 486 38,000  Level FlightAware ADS-B
Wed 04:49:17 PM 33.4260 -111.7260 287° West 422 486 38,000  Level FlightAware ADS-B
Wed 04:49:57 PM 33.4480 -111.8140 287° West 424 488 38,000  Level FlightAware ADS-B
Wed 04:50:42 PM 33.4740 -111.9180 287° West 425 489 38,000  Level FlightAware ADS-B
Wed 04:51:22 PM 33.4960 -112.0090 286° West 426 490 38,000  Level FlightAware ADS-B
Wed 04:52:02 PM 33.5170 -112.0910 287° West 426 490 38,000  Level FlightAware ADS-B
Wed 04:52:47 PM 33.5420 -112.1950 286° West 427 491 38,000  Level FlightAware ADS-B
Wed 04:53:27 PM 33.5640 -112.2870 286° West 426 490 38,000  Level FlightAware ADS-B
Wed 04:54:12 PM 33.5880 -112.3850 286° West 427 491 38,000  Level FlightAware ADS-B
Wed 04:54:52 PM 33.6120 -112.4830 286° West 427 491 38,000  Level FlightAware ADS-B
Wed 04:55:37 PM 33.6360 -112.5840 286° West 426 490 38,000  Level FlightAware ADS-B
Wed 04:56:17 PM 33.6570 -112.6700 286° West 427 491 38,000  Level FlightAware ADS-B
Wed 04:56:52 PM 33.6770 -112.7510 287° West 427 491 38,000  Level FlightAware ADS-B
Wed 04:57:42 PM 33.7040 -112.8650 286° West 428 493 38,000  Level FlightAware ADS-B
Wed 04:58:22 PM 33.7260 -112.9580 286° West 429 494 38,000  Level FlightAware ADS-B
Wed 04:59:07 PM 33.7490 -113.0550 286° West 429 494 38,000  Level FlightAware ADS-B
Wed 04:59:47 PM 33.7720 -113.1540 286° West 429 494 38,000  Level FlightAware ADS-B
Wed 05:00:27 PM 33.7920 -113.2400 286° West 429 494 38,000  Level FlightAware ADS-B
Wed 05:01:12 PM 33.8170 -113.3480 286° West 430 495 38,000  Level FlightAware ADS-B
Wed 05:01:47 PM 33.8320 -113.4110 286° West 430 495 38,000  Level FlightAware ADS-B
Wed 05:02:32 PM 33.8540 -113.5030 286° West 429 494 38,000  Level FlightAware ADS-B
Wed 05:03:17 PM 33.8790 -113.6100 286° West 429 494 38,000  Level FlightAware ADS-B
Wed 05:03:52 PM 33.9000 -113.7020 285° West 429 494 38,000  Level FlightAware ADS-B
Wed 05:04:32 PM 33.9180 -113.7810 285° West 429 494 38,000  Level FlightAware ADS-B
Wed 05:05:22 PM 33.9500 -113.9210 285° West 426 490 38,000  Level FlightAware ADS-B
Wed 05:06:02 PM 33.9710 -114.0150 285° West 424 488 38,000  Level FlightAware ADS-B
Wed 05:07:02 PM 34.0020 -114.1530 285° West 423 487 38,000  Level FlightAware ADS-B
Wed 05:07:37 PM 34.0190 -114.2260 286° West 423 487 38,000  Level FlightAware ADS-B
Wed 05:08:17 PM 34.0340 -114.2930 285° West 425 489 38,000  Level FlightAware ADS-B
Wed 05:09:02 PM 34.0510 -114.3900 282° West 425 489 38,000  Level FlightAware ADS-B
Wed 05:09:42 PM 34.0480 -114.5070 268° West 430 495 38,000  Level FlightAware ADS-B
Wed 05:10:27 PM 34.0540 -114.5900 275° West 430 495 38,000  Level FlightAware ADS-B
Wed 05:11:07 PM 34.0600 -114.6720 275° West 430 495 38,000  Level FlightAware ADS-B
Wed 05:11:57 PM 34.0670 -114.7730 275° West 430 495 38,000  Level FlightAware ADS-B
Wed 05:12:37 PM 34.0730 -114.8550 275° West 430 495 38,000  Level FlightAware ADS-B
Wed 05:13:17 PM 34.0790 -114.9360 275° West 430 495 38,000  Level FlightAware ADS-B
Wed 05:13:57 PM 34.0850 -115.0170 275° West 430 495 38,000  Level FlightAware ADS-B
Wed 05:14:37 PM 34.0910 -115.0990 275° West 430 495 38,000  Level FlightAware ADS-B
Wed 05:15:22 PM 34.1050 -115.3390 274° West 434 499 38,000  Level FlightAware ADS-B
Wed 05:16:02 PM 34.1110 -115.4320 274° West 435 501 38,000  Level FlightAware ADS-B
Wed 05:16:47 PM 34.1170 -115.5410 274° West 436 502 38,000 -133 Level FlightAware ADS-B
Wed 05:17:32 PM 34.1240 -115.6530 274° West 428 493 37,800 -776 Descending FlightAware ADS-B
Wed 05:18:12 PM 34.1270 -115.7470 272° West 431 496 36,900 -1,350 Descending FlightAware ADS-B
Wed 05:18:52 PM 34.1180 -115.8410 263° West 437 503 36,000 -1,341 Descending FlightAware ADS-B
Wed 05:19:37 PM 34.1020 -115.9500 260° West 436 502 35,000 -1,694 Descending FlightAware ADS-B
Wed 05:20:17 PM 34.0880 -116.0430 260° West 438 504 33,600 -2,475 Descending FlightAware ADS-B
Wed 05:20:57 PM 34.0730 -116.1410 260° West 441 507 31,700 -2,612 Descending FlightAware ADS-B
Wed 05:21:42 PM 34.0560 -116.2540 260° West 436 502 29,900 -2,200 Descending FlightAware ADS-B
Wed 05:22:27 PM 34.0410 -116.3570 260° West 427 491 28,400 -2,047 Descending FlightAware ADS-B
Wed 05:23:07 PM 34.0270 -116.4510 260° West 420 483 27,000 -2,118 Descending FlightAware ADS-B
Wed 05:23:52 PM 34.0160 -116.5580 263° West 411 473 25,400 -2,118 Descending FlightAware ADS-B
Wed 05:24:32 PM 34.0090 -116.6480 265° West 406 467 24,000 -2,080 Descending FlightAware ADS-B
Wed 05:25:07 PM 34.0030 -116.7230 265° West 400 460 22,800 -2,080 Descending FlightAware ADS-B
Wed 05:25:47 PM 33.9960 -116.8110 265° West 393 452 21,400 -2,118 Descending FlightAware ADS-B
Wed 05:26:32 PM 33.9880 -116.9100 264° West 386 444 19,800 -2,118 Descending FlightAware ADS-B
Wed 05:27:12 PM 33.9800 -116.9950 264° West 381 438 18,400 -2,025 Descending FlightAware ADS-B
Wed 05:27:52 PM 33.9730 -117.0800 264° West 373 429 17,100 -1,412 Descending FlightAware ADS-B
Wed 05:28:37 PM 33.9650 -117.1690 264° West 356 410 16,400 -776 Descending FlightAware ADS-B
Wed 05:29:17 PM 33.9590 -117.2470 265° West 356 410 16,000 -988 Descending FlightAware ADS-B
Wed 05:30:02 PM 33.9510 -117.3390 264° West 359 413 15,000 -1,300 Descending FlightAware ADS-B
Wed 05:30:17 PM 33.9520 -117.3650 273° West 354 407 14,700 -1,418 Descending FlightAware ADS-B
Wed 05:30:57 PM 33.9750 -117.4400 290° West 349 402 13,700 -1,500 Descending FlightAware ADS-B
Wed 05:31:37 PM 34.0010 -117.5100 294° West 349 402 12,700 -1,694 Descending FlightAware ADS-B
Wed 05:32:22 PM 34.0270 -117.5930 291° West 341 392 11,300 -1,650 Descending FlightAware ADS-B
Wed 05:32:57 PM 34.0250 -117.6560 268° West 311 358 10,500 -1,200 Descending FlightAware ADS-B
Wed 05:33:32 PM 34.0190 -117.7140 263° West 286 329 9,900 -1,100 Descending FlightAware ADS-B
Wed 05:33:57 PM 34.0150 -117.7520 263° West 285 328 9,400 -1,527 Descending FlightAware ADS-B
Wed 05:34:27 PM 34.0100 -117.8000 263° West 291 335 8,500 -1,733 Descending FlightAware ADS-B
Wed 05:34:42 PM 34.0080 -117.8270 265° West 290 334 8,100 -1,500 Descending FlightAware ADS-B
Wed 05:35:07 PM 34.0040 -117.8640 263° West 290 334 7,500 -1,418 Descending FlightAware ADS-B
Wed 05:35:37 PM 33.9990 -117.9120 263° West 292 336 6,800 -1,527 Descending FlightAware ADS-B
Wed 05:36:02 PM 33.9950 -117.9540 263° West 292 336 6,100 -1,527 Descending FlightAware ADS-B
Wed 05:36:32 PM 33.9900 -118.0030 263° West 293 337 5,400 -1,100 Descending FlightAware ADS-B
Wed 05:37:02 PM 33.9850 -118.0500 263° West 279 321 5,000 -873 Descending FlightAware ADS-B
Wed 05:37:27 PM 33.9810 -118.0860 262° West 264 304 4,600 -1,029 Descending FlightAware ADS-B
Wed 05:37:37 PM 33.9800 -118.1010 265° West 259 298 4,400 -1,333 Descending FlightAware ADS-B
Wed 05:38:12 PM 33.9750 -118.1500 263° West 222 255 3,600 -1,200 Descending FlightAware ADS-B
Wed 05:38:37 PM 33.9720 -118.1780 263° West 212 244 3,200 -1,050 Descending FlightAware ADS-B
Wed 05:38:52 PM 33.9700 -118.1950 262° West 204 235 2,900 -1,067 Descending FlightAware ADS-B
Wed 05:39:22 PM 33.9670 -118.2290 264° West 190 219 2,400 -771 Descending FlightAware ADS-B
Wed 05:40:02 PM 33.9640 -118.2520 261° West 179 206 2,000 -706 Descending FlightAware ADS-B
Wed 05:40:47 PM 33.9600 -118.2900 263° West 145 167 1,400 -771 Descending FlightAware ADS-B
Wed 05:41:12 PM 33.9590 -118.3050 265° West 136 157 1,100 -360 Descending FlightAware ADS-B
Wed 05:41:37 PM 33.9570 -118.3230 262° West 136 157 1,100 -764 Level FlightAware ADS-B
Wed 05:42:07 PM 33.9540 -118.3520 263° West 130 150 400 -900 Descending FlightAware ADS-B
Wed 05:42:37 PM 33.9520 -118.3660 260° West 129 148 200 -218 Descending FlightAware ADS-B
Wed 05:43:02 PM 33.9500 -118.3830 262° West 129 148 200  Level FlightAware ADS-B

Login

Don't have an account? Register now (free) for customized features, flight alerts, and more!